createdAt,value
2017-11-08T00:00:20.793Z,89.50
2017-11-08T00:02:48.334Z,89.20
2017-11-08T00:05:15.815Z,89.00
2017-11-08T00:07:43.537Z,88.90
2017-11-08T00:10:11.072Z,89.00
2017-11-08T00:12:38.650Z,89.00
2017-11-08T00:15:06.968Z,89.00
2017-11-08T00:17:34.500Z,89.00
2017-11-08T00:20:02.031Z,89.20
2017-11-08T00:22:29.514Z,89.20
2017-11-08T00:24:58.734Z,89.10
2017-11-08T00:27:26.275Z,89.00
2017-11-08T00:29:54.592Z,88.80
2017-11-08T00:32:22.084Z,88.70
2017-11-08T00:34:50.388Z,88.90
2017-11-08T00:37:17.878Z,88.90
2017-11-08T00:39:45.359Z,88.60
2017-11-08T00:42:12.841Z,88.60
2017-11-08T00:44:40.460Z,89.00
2017-11-08T00:47:07.947Z,89.00
2017-11-08T00:49:35.421Z,88.70
2017-11-08T00:52:02.972Z,88.60
2017-11-08T00:54:30.475Z,88.60
2017-11-08T00:56:57.958Z,89.20
2017-11-08T00:59:25.432Z,88.60
2017-11-08T01:01:52.923Z,88.60
2017-11-08T01:04:21.160Z,88.90
2017-11-08T01:06:48.634Z,88.80
2017-11-08T01:09:16.896Z,88.70
2017-11-08T01:11:44.430Z,88.50
2017-11-08T01:14:11.903Z,88.60
2017-11-08T01:16:39.447Z,89.00
2017-11-08T01:19:06.966Z,89.10
2017-11-08T01:21:46.284Z,89.40
2017-11-08T01:24:18.055Z,89.20
2017-11-08T01:26:46.508Z,89.30
2017-11-08T01:29:14.824Z,89.10
2017-11-08T01:31:42.328Z,89.00
2017-11-08T01:34:09.830Z,89.00
2017-11-08T01:36:38.191Z,89.10
2017-11-08T01:39:12.403Z,89.30
2017-11-08T01:41:46.284Z,89.20
2017-11-08T01:44:13.773Z,89.20
2017-11-08T01:46:42.056Z,89.50
2017-11-08T01:49:10.326Z,90.00
2017-11-08T01:51:38.690Z,89.50
2017-11-08T01:54:06.251Z,89.50
2017-11-08T01:56:34.647Z,89.70
2017-11-08T01:59:03.023Z,89.60
2017-11-08T02:01:30.672Z,89.60
2017-11-08T02:03:59.036Z,89.50
2017-11-08T02:06:26.572Z,89.50
2017-11-08T02:08:54.087Z,89.50
2017-11-08T02:11:21.648Z,89.30
2017-11-08T02:13:49.922Z,89.70
2017-11-08T02:16:18.203Z,89.50
2017-11-08T02:18:49.602Z,89.50
2017-11-08T02:21:17.163Z,89.40
2017-11-08T02:23:45.503Z,89.30
2017-11-08T02:26:13.006Z,89.20
2017-11-08T02:28:40.493Z,89.20
2017-11-08T02:31:07.973Z,89.00
2017-11-08T02:33:47.914Z,89.10
2017-11-08T02:36:15.681Z,89.10
2017-11-08T02:38:43.185Z,89.00
2017-11-08T02:41:10.686Z,89.00
2017-11-08T02:43:38.152Z,89.10
2017-11-08T02:46:07.551Z,89.30
2017-11-08T02:48:35.016Z,89.40
2017-11-08T02:51:02.610Z,89.40
2017-11-08T02:53:31.035Z,89.40
2017-11-08T02:55:58.517Z,89.50
2017-11-08T02:58:26.037Z,90.10
2017-11-08T03:00:53.532Z,89.90
2017-11-08T03:03:21.039Z,89.90
2017-11-08T03:05:48.528Z,89.80
2017-11-08T03:08:16.000Z,89.80
2017-11-08T03:10:43.500Z,89.80
2017-11-08T03:13:11.085Z,89.80
2017-11-08T03:15:38.565Z,89.80
2017-11-08T03:18:06.828Z,89.90
2017-11-08T03:20:34.307Z,89.80
2017-11-08T03:23:02.341Z,90.00
2017-11-08T03:25:30.003Z,90.00
2017-11-08T03:27:57.499Z,90.00
2017-11-08T03:30:25.041Z,90.10
2017-11-08T03:32:53.273Z,90.10
2017-11-08T03:35:21.017Z,90.10
2017-11-08T03:37:48.684Z,90.10
2017-11-08T03:40:16.215Z,90.00
2017-11-08T03:42:43.698Z,89.60
2017-11-08T03:45:11.169Z,90.10
2017-11-08T03:47:38.808Z,90.10
2017-11-08T03:50:06.400Z,90.20
2017-11-08T03:52:33.914Z,90.20
2017-11-08T03:55:01.415Z,90.30
2017-11-08T03:57:28.898Z,90.30
2017-11-08T03:59:57.193Z,90.40
2017-11-08T04:02:25.493Z,90.40
2017-11-08T04:04:52.966Z,90.40
2017-11-08T04:07:20.455Z,90.40
2017-11-08T04:09:48.724Z,90.40
2017-11-08T04:12:16.270Z,90.30
2017-11-08T04:14:43.754Z,90.40
2017-11-08T04:17:12.026Z,90.40
2017-11-08T04:19:39.529Z,90.40
2017-11-08T04:22:07.058Z,90.40
2017-11-08T04:24:34.570Z,90.40
2017-11-08T04:27:02.103Z,90.50
2017-11-08T04:29:29.619Z,90.50
2017-11-08T04:31:57.159Z,90.40
2017-11-08T04:34:24.748Z,90.50
2017-11-08T04:36:52.303Z,90.50
2017-11-08T04:39:19.791Z,90.50
2017-11-08T04:41:47.315Z,90.60
2017-11-08T04:44:14.896Z,90.60
2017-11-08T04:46:42.765Z,90.60
2017-11-08T04:49:10.375Z,90.60
2017-11-08T04:51:37.913Z,90.70
2017-11-08T04:54:05.505Z,90.60
2017-11-08T04:56:33.089Z,90.60
2017-11-08T04:59:00.643Z,90.50
2017-11-08T05:01:28.159Z,90.50
2017-11-08T05:03:55.679Z,90.50
2017-11-08T05:06:23.231Z,90.50
2017-11-08T05:08:50.792Z,90.40
2017-11-08T05:11:18.660Z,90.50
2017-11-08T05:13:46.213Z,90.50
2017-11-08T05:16:13.742Z,90.60
2017-11-08T05:18:41.339Z,90.60
2017-11-08T05:21:08.972Z,90.60
2017-11-08T05:23:37.034Z,90.80
2017-11-08T05:26:04.674Z,90.80
2017-11-08T05:28:32.191Z,90.80
2017-11-08T05:30:59.752Z,91.00
2017-11-08T05:33:27.252Z,91.00
2017-11-08T05:35:54.751Z,91.40
2017-11-08T05:38:22.291Z,91.30
2017-11-08T05:40:49.851Z,91.40
2017-11-08T05:43:17.345Z,91.30
2017-11-08T05:45:44.866Z,91.30
2017-11-08T05:48:12.409Z,91.30
2017-11-08T05:50:39.975Z,91.30
2017-11-08T05:53:07.514Z,91.20
2017-11-08T05:55:35.143Z,91.20
2017-11-08T05:58:02.670Z,91.30
2017-11-08T06:00:30.145Z,91.40
2017-11-08T06:02:57.628Z,91.30
2017-11-08T06:05:25.244Z,91.20
2017-11-08T06:07:56.439Z,91.20
2017-11-08T06:10:23.976Z,91.20
2017-11-08T06:12:51.549Z,91.20
2017-11-08T06:15:19.076Z,91.20
2017-11-08T06:17:46.656Z,91.20
2017-11-08T06:20:15.221Z,91.10
2017-11-08T06:22:42.748Z,91.10
2017-11-08T06:25:10.252Z,91.00
2017-11-08T06:27:39.252Z,91.40
2017-11-08T06:30:08.684Z,91.10
2017-11-08T06:32:36.301Z,91.10
2017-11-08T06:35:03.866Z,91.20
2017-11-08T06:37:31.468Z,91.30
2017-11-08T06:39:59.083Z,91.40
2017-11-08T06:42:27.195Z,91.50
2017-11-08T06:44:54.707Z,91.70
2017-11-08T06:47:24.880Z,91.70
2017-11-08T06:49:52.614Z,91.70
2017-11-08T06:52:20.155Z,91.60
2017-11-08T06:54:47.666Z,91.50
2017-11-08T06:57:15.162Z,91.40
2017-11-08T06:59:42.676Z,91.40
2017-11-08T07:02:10.158Z,91.20
2017-11-08T07:04:37.646Z,91.20
2017-11-08T07:07:05.195Z,91.10
2017-11-08T07:09:32.739Z,91.10
2017-11-08T07:12:00.269Z,91.00
2017-11-08T07:14:28.434Z,90.90
2017-11-08T07:16:56.112Z,90.80
2017-11-08T07:19:23.619Z,90.80
2017-11-08T07:21:51.102Z,90.80
2017-11-08T07:24:18.602Z,90.90
2017-11-08T07:26:46.096Z,90.90
2017-11-08T07:29:13.767Z,90.90
2017-11-08T07:31:41.593Z,90.90
2017-11-08T07:34:10.879Z,90.90
2017-11-08T07:36:38.366Z,90.90
2017-11-08T07:39:05.912Z,90.90
2017-11-08T07:41:33.483Z,91.00
2017-11-08T07:44:01.069Z,91.00
2017-11-08T07:46:28.674Z,91.00
2017-11-08T07:48:56.194Z,91.00
2017-11-08T07:51:23.735Z,90.80
2017-11-08T07:53:51.609Z,90.90
2017-11-08T07:56:20.971Z,90.80
2017-11-08T07:58:48.539Z,90.70
2017-11-08T08:01:16.117Z,90.60
2017-11-08T08:03:43.682Z,90.70
2017-11-08T08:06:11.298Z,90.80
2017-11-08T08:08:40.570Z,90.80
2017-11-08T08:14:03.901Z,90.80
2017-11-08T08:16:32.331Z,90.70
2017-11-08T08:19:01.330Z,90.70
2017-11-08T08:24:58.813Z,90.60
2017-11-08T08:27:26.425Z,90.70
2017-11-08T08:29:54.330Z,90.70
2017-11-08T08:32:22.052Z,90.50
2017-11-08T08:34:49.668Z,90.50
2017-11-08T08:37:17.295Z,90.50
2017-11-08T08:39:45.096Z,90.40
2017-11-08T08:42:15.704Z,90.10
2017-11-08T08:44:46.798Z,90.20
2017-11-08T08:47:14.978Z,90.30
2017-11-08T08:49:42.548Z,90.40
2017-11-08T08:52:12.207Z,90.40
2017-11-08T08:54:41.640Z,90.30
2017-11-08T08:57:09.258Z,90.30
2017-11-08T08:59:36.754Z,90.60
2017-11-08T09:02:10.098Z,90.80
2017-11-08T09:04:37.635Z,90.90
2017-11-08T09:07:05.181Z,91.00
2017-11-08T09:09:32.698Z,91.00
2017-11-08T09:12:00.237Z,91.00
2017-11-08T09:14:28.997Z,91.00
2017-11-08T09:16:58.844Z,91.10
2017-11-08T09:19:40.989Z,91.10
2017-11-08T09:22:09.918Z,91.00
2017-11-08T09:24:38.762Z,91.00
2017-11-08T09:27:06.347Z,91.00
2017-11-08T09:29:34.697Z,90.80
2017-11-08T09:32:02.783Z,90.70
2017-11-08T09:34:31.024Z,90.80
2017-11-08T09:36:58.824Z,90.80
2017-11-08T09:39:26.431Z,90.80
2017-11-08T09:42:05.776Z,90.80
2017-11-08T09:44:33.298Z,90.70
2017-11-08T09:47:00.826Z,90.70
2017-11-08T09:49:28.409Z,90.40
2017-11-08T09:51:56.024Z,90.40
2017-11-08T09:54:23.525Z,90.30
2017-11-08T09:56:51.004Z,90.30
2017-11-08T09:59:18.542Z,90.10
2017-11-08T10:01:46.857Z,89.20
2017-11-08T10:04:15.639Z,89.10
2017-11-08T10:06:45.333Z,88.60
2017-11-08T10:09:12.946Z,88.60
2017-11-08T10:11:46.168Z,88.40
2017-11-08T10:14:14.635Z,87.70
2017-11-08T10:16:49.261Z,87.50
2017-11-08T10:19:22.136Z,87.60
2017-11-08T10:21:50.571Z,87.00
2017-11-08T10:24:18.312Z,86.90
2017-11-08T10:26:45.863Z,86.20
2017-11-08T10:29:13.535Z,85.80
2017-11-08T10:31:42.044Z,85.70
2017-11-08T10:34:09.574Z,85.50
2017-11-08T10:36:37.081Z,86.00
2017-11-08T10:39:04.614Z,85.80
2017-11-08T10:41:32.211Z,85.80
2017-11-08T10:43:59.769Z,86.00
2017-11-08T10:46:27.447Z,86.00
2017-11-08T10:48:55.092Z,85.50
2017-11-08T10:51:22.733Z,85.60
2017-11-08T10:53:52.193Z,85.70
2017-11-08T10:56:19.759Z,85.30
2017-11-08T10:58:47.309Z,85.60
2017-11-08T11:01:21.432Z,85.80
2017-11-08T11:03:51.395Z,86.20
2017-11-08T11:06:18.973Z,86.30
2017-11-08T11:08:46.532Z,86.30
2017-11-08T11:11:14.036Z,86.40
2017-11-08T11:13:47.715Z,86.50
2017-11-08T11:16:18.092Z,86.30
2017-11-08T11:18:45.669Z,85.90
2017-11-08T11:21:13.242Z,86.40
2017-11-08T11:23:41.759Z,85.50
2017-11-08T11:26:09.308Z,85.50
2017-11-08T11:28:36.876Z,85.00
2017-11-08T11:31:04.388Z,85.20
2017-11-08T11:33:32.113Z,84.20
2017-11-08T11:35:59.622Z,83.80
2017-11-08T11:38:28.911Z,82.80
2017-11-08T11:40:56.461Z,82.30
2017-11-08T11:43:24.073Z,82.50
2017-11-08T11:45:51.603Z,82.40
2017-11-08T11:48:19.132Z,82.40
2017-11-08T11:50:46.665Z,82.20
2017-11-08T11:53:14.244Z,82.00
2017-11-08T11:55:41.797Z,81.60
2017-11-08T11:58:09.386Z,81.50
2017-11-08T12:00:36.961Z,81.40
2017-11-08T12:03:04.451Z,81.40
2017-11-08T12:05:46.740Z,81.40
2017-11-08T12:08:14.440Z,80.90
2017-11-08T12:10:42.189Z,80.80
2017-11-08T13:52:15.937Z,82.30
2017-11-08T13:54:43.512Z,82.30
2017-11-08T13:57:11.027Z,81.80
2017-11-08T13:59:38.591Z,81.50
2017-11-08T14:02:06.095Z,81.90
2017-11-08T14:04:33.649Z,81.80
2017-11-08T14:07:01.269Z,81.50
2017-11-08T14:09:28.886Z,81.30
2017-11-08T14:11:56.377Z,81.40
2017-11-08T14:14:23.901Z,81.60
2017-11-08T14:16:51.478Z,81.00
2017-11-08T14:19:19.752Z,80.10
2017-11-08T14:21:47.292Z,79.70
2017-11-08T14:24:14.852Z,79.60
2017-11-08T14:26:42.367Z,80.00
2017-11-08T14:29:09.936Z,79.30
2017-11-08T14:31:37.534Z,79.90
2017-11-08T14:34:19.520Z,79.20
2017-11-08T14:36:48.960Z,79.60
2017-11-08T14:39:16.706Z,80.00
2017-11-08T14:41:50.837Z,80.20
2017-11-08T14:44:18.993Z,80.30
2017-11-08T14:46:46.665Z,80.30
2017-11-08T14:49:14.324Z,80.10
2017-11-08T14:51:41.979Z,80.40
2017-11-08T14:54:09.673Z,80.70
2017-11-08T14:56:37.256Z,80.50
2017-11-08T14:59:04.989Z,81.20
2017-11-08T15:01:33.767Z,81.30
2017-11-08T15:04:01.625Z,81.40
2017-11-08T15:06:29.414Z,81.30
2017-11-08T15:08:57.365Z,81.80
2017-11-08T15:11:24.891Z,81.80
2017-11-08T15:13:52.578Z,81.80
2017-11-08T15:16:20.066Z,82.10
2017-11-08T15:18:47.624Z,81.90
2017-11-08T15:21:15.193Z,81.80
2017-11-08T15:23:42.719Z,82.10
2017-11-08T15:26:10.304Z,82.40
2017-11-08T15:28:37.841Z,82.20
2017-11-08T15:31:06.244Z,82.30
2017-11-08T15:33:34.493Z,82.20
2017-11-08T15:36:02.062Z,82.60
2017-11-08T15:38:29.611Z,82.30
2017-11-08T15:40:57.202Z,81.80
2017-11-08T15:43:26.876Z,81.40
2017-11-08T15:45:54.464Z,81.40
2017-11-08T15:48:21.998Z,81.50
2017-11-08T15:50:49.564Z,82.20
2017-11-08T15:53:17.148Z,81.80
2017-11-08T15:55:44.676Z,81.50
2017-11-08T15:58:12.191Z,81.30
2017-11-08T16:00:40.266Z,81.00
2017-11-08T16:03:08.531Z,81.60
2017-11-08T16:05:36.057Z,81.30
2017-11-08T16:08:07.313Z,81.50
2017-11-08T16:10:34.862Z,81.60
2017-11-08T16:13:17.106Z,81.50
2017-11-08T16:15:44.677Z,81.50
2017-11-08T16:18:12.184Z,81.50
2017-11-08T16:20:39.739Z,81.20
2017-11-08T16:23:07.268Z,80.70
2017-11-08T16:25:34.943Z,80.60
2017-11-08T16:28:02.471Z,80.40
2017-11-08T16:30:29.960Z,80.50
2017-11-08T16:32:57.488Z,80.50
2017-11-08T16:35:25.256Z,80.40
2017-11-08T16:37:53.592Z,80.80
2017-11-08T16:40:37.235Z,80.70
2017-11-08T16:43:04.984Z,80.80
2017-11-08T16:45:32.670Z,80.50
2017-11-08T16:48:10.461Z,80.70
2017-11-08T16:50:41.072Z,80.90
2017-11-08T16:53:14.739Z,81.50
2017-11-08T16:55:47.509Z,81.40
2017-11-08T16:58:23.686Z,81.30
2017-11-08T17:00:51.687Z,81.60
2017-11-08T17:03:19.560Z,80.20
2017-11-08T17:05:47.941Z,80.40
2017-11-08T17:08:22.540Z,80.10
2017-11-08T17:10:50.602Z,80.10
2017-11-08T17:13:18.342Z,80.10
2017-11-08T17:15:45.915Z,80.80
2017-11-08T17:18:13.442Z,81.00
2017-11-08T17:20:41.122Z,80.40
2017-11-08T17:23:08.651Z,80.00
2017-11-08T17:25:36.301Z,79.70
2017-11-08T17:28:03.876Z,80.00
2017-11-08T17:30:31.575Z,80.00
2017-11-08T17:32:59.161Z,80.00
2017-11-08T17:35:26.975Z,80.10
2017-11-08T17:37:54.699Z,80.00
2017-11-08T17:40:22.355Z,79.60
2017-11-08T17:42:49.964Z,79.60
2017-11-08T17:45:17.549Z,79.30
2017-11-08T17:47:45.178Z,80.10
2017-11-08T17:50:13.989Z,81.20
2017-11-08T17:52:41.884Z,81.20
2017-11-08T17:55:09.571Z,80.70
2017-11-08T17:57:37.793Z,81.30
2017-11-08T18:00:05.488Z,80.70
2017-11-08T18:02:33.173Z,80.80
2017-11-08T18:05:00.825Z,80.70
2017-11-08T18:07:28.472Z,80.80
2017-11-08T18:09:56.015Z,81.00
2017-11-08T18:12:23.677Z,81.00
2017-11-08T18:14:51.203Z,81.40
2017-11-08T18:17:18.794Z,81.80
2017-11-08T18:19:46.771Z,81.60
2017-11-08T18:22:14.438Z,81.70
2017-11-08T18:24:42.163Z,81.50
2017-11-08T18:27:09.746Z,81.80
2017-11-08T18:29:37.413Z,81.70
2017-11-08T18:32:05.246Z,81.80
2017-11-08T18:34:32.862Z,81.80
2017-11-08T18:37:00.412Z,81.90
2017-11-08T18:39:28.100Z,82.10
2017-11-08T18:41:55.675Z,82.70
2017-11-08T18:44:23.314Z,82.70
2017-11-08T18:46:51.145Z,82.50
2017-11-08T18:49:18.741Z,82.40
2017-11-08T18:51:46.431Z,82.50
2017-11-08T18:54:14.196Z,82.40
2017-11-08T18:56:41.991Z,82.30
2017-11-08T18:59:09.625Z,82.50
2017-11-08T19:01:37.192Z,82.40
2017-11-08T19:04:04.956Z,82.70
2017-11-08T19:06:32.565Z,82.80
2017-11-08T19:09:00.709Z,82.80
2017-11-08T19:11:27.797Z,82.80
2017-11-08T19:13:55.410Z,82.80
2017-11-08T19:16:22.942Z,82.70
2017-11-08T19:18:50.600Z,82.80
2017-11-08T19:21:18.232Z,82.60
2017-11-08T19:23:45.811Z,82.60
2017-11-08T19:26:13.413Z,82.70
2017-11-08T19:28:41.762Z,82.90
2017-11-08T19:31:09.289Z,82.90
2017-11-08T19:33:36.822Z,83.10
2017-11-08T19:36:06.347Z,83.20
2017-11-08T19:38:33.877Z,83.90
2017-11-08T19:41:01.493Z,83.10
2017-11-08T19:43:29.004Z,82.90
2017-11-08T19:45:57.344Z,83.10
2017-11-08T19:48:25.061Z,83.10
2017-11-08T19:50:52.609Z,83.20
2017-11-08T19:53:20.991Z,83.10
2017-11-08T19:55:48.560Z,83.10
2017-11-08T19:58:16.037Z,83.40
2017-11-08T20:00:43.602Z,83.30
2017-11-08T20:03:11.194Z,83.10
2017-11-08T20:05:38.709Z,83.00
2017-11-08T20:08:06.230Z,83.10
2017-11-08T20:10:33.731Z,83.50
2017-11-08T20:13:01.283Z,83.60
2017-11-08T20:15:28.774Z,83.60
2017-11-08T20:17:56.391Z,83.30
2017-11-08T20:20:23.952Z,83.40
2017-11-08T20:22:51.546Z,83.40
2017-11-08T20:25:20.768Z,83.60
2017-11-08T20:27:49.182Z,84.50
2017-11-08T20:30:16.784Z,83.80
2017-11-08T20:32:44.452Z,84.20
2017-11-08T20:35:11.959Z,84.70
2017-11-08T20:37:39.665Z,85.10
2017-11-08T20:40:07.284Z,84.90
2017-11-08T20:42:34.792Z,85.50
2017-11-08T20:45:02.295Z,86.00
2017-11-08T20:47:29.766Z,86.10
2017-11-08T20:49:57.320Z,85.70
2017-11-08T20:52:25.633Z,84.80
2017-11-08T20:54:53.164Z,84.70
2017-11-08T20:57:20.706Z,84.60
2017-11-08T20:59:48.240Z,84.80
2017-11-08T21:02:15.737Z,85.00
2017-11-08T21:04:43.236Z,84.70
2017-11-08T21:07:11.524Z,84.70
2017-11-08T21:09:39.103Z,84.60
2017-11-08T21:12:07.359Z,84.40
2017-11-08T21:14:34.999Z,84.40
2017-11-08T21:17:02.568Z,84.50
2017-11-08T21:19:30.078Z,84.50
2017-11-08T21:21:57.587Z,84.50
2017-11-08T21:24:25.075Z,84.80
2017-11-08T21:29:33.633Z,84.70
2017-11-08T21:32:01.174Z,84.20
2017-11-08T21:34:28.730Z,84.10
2017-11-08T21:36:56.229Z,84.00
2017-11-08T21:39:23.721Z,83.90
2017-11-08T21:41:51.323Z,84.10
2017-11-08T21:44:19.796Z,84.20
2017-11-08T21:46:47.323Z,84.20
2017-11-08T21:49:14.878Z,84.50
2017-11-08T21:51:42.422Z,84.40
2017-11-08T21:54:10.777Z,84.50
2017-11-08T21:56:38.869Z,84.40
2017-11-08T21:59:07.749Z,84.40
2017-11-08T22:01:36.316Z,84.40
2017-11-08T22:04:04.033Z,84.60
2017-11-08T22:06:31.680Z,84.50
2017-11-08T22:08:59.379Z,84.60
2017-11-08T22:11:27.003Z,84.70
2017-11-08T22:13:54.569Z,84.90
2017-11-08T22:16:22.118Z,84.90
2017-11-08T22:18:49.665Z,85.70
2017-11-08T22:21:17.191Z,85.90
2017-11-08T22:23:44.897Z,85.60
2017-11-08T22:26:13.224Z,85.80
2017-11-08T22:28:40.744Z,85.80
2017-11-08T22:31:08.340Z,85.60
2017-11-08T22:33:37.724Z,85.00
2017-11-08T22:36:05.310Z,85.00
2017-11-08T22:38:32.868Z,85.00
2017-11-08T22:41:00.400Z,85.00
2017-11-08T22:43:28.054Z,84.90
2017-11-08T22:45:55.952Z,85.00
2017-11-08T22:48:23.719Z,84.80
2017-11-08T22:50:51.315Z,84.90
2017-11-08T22:53:19.031Z,85.00
2017-11-08T22:55:46.596Z,85.00
2017-11-08T22:58:14.093Z,85.00
2017-11-08T23:00:41.702Z,84.90
2017-11-08T23:03:09.323Z,85.00
2017-11-08T23:05:36.892Z,84.90
2017-11-08T23:08:04.493Z,84.80
2017-11-08T23:10:32.053Z,84.80
2017-11-08T23:12:59.651Z,84.70
2017-11-08T23:15:29.184Z,84.80
2017-11-08T23:17:56.817Z,84.70
2017-11-08T23:20:24.392Z,85.00
2017-11-08T23:22:52.063Z,85.00
2017-11-08T23:25:19.726Z,84.80
2017-11-08T23:27:47.407Z,85.00
2017-11-08T23:30:14.982Z,85.10
2017-11-08T23:32:42.533Z,85.10
2017-11-08T23:35:10.196Z,85.10
2017-11-08T23:37:37.784Z,85.00
2017-11-08T23:40:05.409Z,85.00
2017-11-08T23:42:33.063Z,85.10
2017-11-08T23:45:00.934Z,85.00
2017-11-08T23:47:28.520Z,85.20
2017-11-08T23:49:56.078Z,85.20
2017-11-08T23:52:23.692Z,85.20
2017-11-08T23:54:51.368Z,85.30
2017-11-08T23:57:19.060Z,85.40
2017-11-08T23:59:46.689Z,85.60
